Time;durP1;ratioP1;P1;durP2;ratioP2;P2;SDS_P1;SDS_P2;PMS_P1;PMS_P2;Temp;Humidity;BMP_temperature;BMP_pressure;BME280_temperature;BME280_humidity;BME280_pressure;Samples;Min_cycle;Max_cycle;Signal;HPM_P1;HPM_P2
2021/06/02 04:37:55;;;;;;;18.50;10.05;;;;;;;13.74;67.02;100374.81;5195624;27;20360;-65
2021/06/02 04:40:20;;;;;;;20.30;10.63;;;;;;;13.84;66.43;100374.50;5192953;27;21607;-62
2021/06/02 04:42:45;;;;;;;17.90;9.95;;;;;;;13.95;66.17;100379.38;5176063;27;20030;-62
2021/06/02 04:45:18;;;;;;;13.07;9.30;;;;;;;14.03;66.10;100381.94;5193408;27;33200;-64
2021/06/02 04:47:44;;;;;;;13.60;9.50;;;;;;;14.14;65.99;100379.81;5193592;27;20058;-63
2021/06/02 04:50:33;;;;;;;15.20;9.43;;;;;;;14.22;65.97;100385.84;5193649;27;20041;-64
2021/06/02 04:53:23;;;;;;;11.20;8.52;;;;;;;14.33;65.69;100395.25;5195062;27;20084;-63
2021/06/02 04:56:07;;;;;;;12.75;8.63;;;;;;;14.41;65.61;100391.63;5194665;27;20042;-64
2021/06/02 04:59:09;;;;;;;12.30;8.98;;;;;;;14.48;65.41;100397.06;5194997;27;20754;-64
2021/06/02 05:02:12;;;;;;;16.63;8.60;;;;;;;14.56;65.21;100405.81;5194383;27;20038;-65
2021/06/02 05:05:11;;;;;;;19.23;9.18;;;;;;;14.66;64.92;100402.00;5191319;27;20117;-66
2021/06/02 05:07:52;;;;;;;14.70;9.20;;;;;;;14.68;64.58;100403.47;5191553;27;20039;-67
2021/06/02 05:10:17;;;;;;;;;;;;;;;14.69;64.47;100410.50;5195083;27;20022;-69
2021/06/02 05:13:01;;;;;;;13.02;8.50;;;;;;;14.73;64.09;100416.31;5192573;27;19915;-68
2021/06/02 05:15:35;;;;;;;15.20;9.13;;;;;;;14.76;63.87;100415.91;5192844;27;20045;-68
2021/06/02 05:18:33;;;;;;;14.57;9.05;;;;;;;14.81;63.65;100416.16;5189656;27;20101;-69
2021/06/02 05:24:19;;;;;;;14.30;8.98;;;;;;;14.87;63.43;100415.41;5192382;27;20050;-67
2021/06/02 05:27:22;;;;;;;13.90;9.60;;;;;;;14.85;62.95;100425.47;5192343;27;20026;-67
2021/06/02 05:29:47;;;;;;;18.52;10.73;;;;;;;14.91;63.38;100429.25;5192490;27;20857;-67
2021/06/02 05:32:23;;;;;;;15.40;9.40;;;;;;;14.99;63.08;100425.59;5193509;27;20114;-67
2021/06/02 05:34:53;;;;;;;18.95;10.18;;;;;;;15.03;62.90;100421.50;5192409;27;20022;-67
2021/06/02 05:37:33;;;;;;;16.00;9.80;;;;;;;15.07;62.48;100423.59;5191245;27;20103;-67
2021/06/02 05:40:12;;;;;;;16.38;10.00;;;;;;;15.12;62.38;100425.72;5191247;27;20034;-66
2021/06/02 05:43:26;;;;;;;15.25;10.38;;;;;;;15.20;62.14;100422.91;5191203;27;20023;-68
2021/06/02 05:46:09;;;;;;;14.38;9.45;;;;;;;15.27;61.84;100438.19;5186729;27;20046;-68
2021/06/02 05:48:44;;;;;;;16.83;11.60;;;;;;;15.29;61.43;100430.78;5183506;27;20523;-68
2021/06/02 05:51:22;;;;;;;19.05;12.00;;;;;;;15.32;60.89;100435.78;5177719;27;20031;-66
2021/06/02 05:54:09;;;;;;;15.55;11.60;;;;;;;15.36;61.05;100431.66;5161035;27;20780;-65
2021/06/02 05:57:08;;;;;;;17.25;11.00;;;;;;;15.40;60.50;100433.78;5178117;27;20030;-67
2021/06/02 05:59:45;;;;;;;16.00;11.40;;;;;;;15.52;60.90;100442.09;5180052;27;20109;-68
2021/06/02 06:02:16;;;;;;;18.15;11.57;;;;;;;15.59;60.57;100435.97;5179534;27;20114;-68
2021/06/02 06:05:00;;;;;;;18.27;12.15;;;;;;;15.68;60.41;100445.53;5179887;27;20073;-69
2021/06/02 06:08:04;;;;;;;16.00;10.15;;;;;;;15.75;59.88;100449.06;5179443;27;20565;-71
2021/06/02 06:11:03;;;;;;;18.73;10.73;;;;;;;15.80;59.16;100456.56;5179488;27;20098;-70
2021/06/02 06:13:56;;;;;;;17.38;10.85;;;;;;;15.85;59.02;100454.09;5179527;27;20525;-68
2021/06/02 06:16:54;;;;;;;18.95;10.85;;;;;;;15.93;58.19;100451.25;5179228;27;20564;-68
2021/06/02 06:19:46;;;;;;;16.77;10.25;;;;;;;15.99;58.21;100455.00;5180000;27;20066;-69
2021/06/02 06:23:02;;;;;;;18.88;10.60;;;;;;;16.12;58.10;100457.75;5178072;27;20026;-65
2021/06/02 06:25:53;;;;;;;16.05;10.20;;;;;;;16.26;57.79;100463.19;5134973;27;20043;-69
2021/06/02 06:28:56;;;;;;;17.27;10.25;;;;;;;16.46;57.26;100458.69;5154861;27;20048;-71
2021/06/02 06:31:23;;;;;;;16.17;9.57;;;;;;;16.72;57.90;100457.13;5157676;27;20095;-67
2021/06/02 06:33:50;;;;;;;14.65;9.45;;;;;;;16.97;56.97;100459.25;5157311;27;20027;-70
2021/06/02 06:36:16;;;;;;;19.75;9.43;;;;;;;17.05;56.75;100465.22;5173505;27;20047;-66
2021/06/02 06:38:48;;;;;;;17.05;10.32;;;;;;;17.15;55.90;100467.50;5156135;27;20738;-65
2021/06/02 06:41:13;;;;;;;19.02;9.68;;;;;;;17.10;54.91;100464.63;5174269;27;20839;-67
2021/06/02 06:43:40;;;;;;;23.20;9.20;;;;;;;17.22;55.56;100468.38;5159207;27;40624;-69
2021/06/02 06:46:05;;;;;;;14.02;8.75;;;;;;;17.39;54.91;100466.06;5159900;27;20571;-68
2021/06/02 06:48:30;;;;;;;13.10;8.35;;;;;;;17.33;53.36;100480.38;5159395;27;30979;-67
2021/06/02 06:50:58;;;;;;;18.15;8.63;;;;;;;17.33;53.39;100476.84;5176739;27;39817;-70
2021/06/02 06:53:23;;;;;;;14.10;8.35;;;;;;;17.35;53.73;100477.47;5159509;27;20019;-70
2021/06/02 06:55:49;;;;;;;21.15;7.88;;;;;;;17.47;53.52;100470.41;5176793;27;37731;-68
2021/06/02 06:58:15;;;;;;;13.32;8.00;;;;;;;17.56;53.06;100469.16;5177613;27;20033;-69
2021/06/02 07:00:40;;;;;;;14.23;7.57;;;;;;;17.65;52.65;100474.34;5158631;27;31590;-70
2021/06/02 07:03:07;;;;;;;14.30;7.03;;;;;;;17.68;52.19;100479.28;5177560;27;20030;-65
2021/06/02 07:05:32;;;;;;;14.40;7.05;;;;;;;17.78;52.12;100479.66;5159948;27;20031;-68
2021/06/02 07:07:58;;;;;;;12.82;6.55;;;;;;;17.95;51.86;100484.63;5160276;27;20031;-69
2021/06/02 07:10:23;;;;;;;12.70;7.28;;;;;;;18.14;52.03;100480.22;5177579;27;20087;-66
2021/06/02 07:12:49;;;;;;;12.77;7.00;;;;;;;18.23;51.62;100478.94;5177348;27;20054;-66
2021/06/02 07:15:15;;;;;;;11.98;7.15;;;;;;;18.44;51.94;100492.13;5178803;27;20031;-69
2021/06/02 07:17:43;;;;;;;10.10;7.22;;;;;;;18.56;51.24;100488.75;5178769;27;20086;-68
2021/06/02 07:20:09;;;;;;;12.43;6.50;;;;;;;18.67;50.92;100492.63;5178429;27;20067;-68
2021/06/02 07:22:43;;;;;;;14.52;6.38;;;;;;;18.68;50.40;100488.91;5177195;27;20030;-67
2021/06/02 07:25:09;;;;;;;10.30;6.15;;;;;;;18.84;50.76;100492.97;5160884;27;20030;-67
2021/06/02 07:27:35;;;;;;;13.45;6.63;;;;;;;18.97;50.62;100498.28;5176697;27;20471;-70
2021/06/02 07:30:01;;;;;;;13.93;6.90;;;;;;;19.16;50.54;100493.78;5176623;27;20058;-70
2021/06/02 07:32:26;;;;;;;10.07;6.47;;;;;;;19.22;49.51;100487.50;5178269;27;20023;-67
2021/06/02 07:34:52;;;;;;;12.18;6.10;;;;;;;19.20;49.14;100495.00;5177227;27;38527;-69
2021/06/02 07:37:18;;;;;;;10.30;6.38;;;;;;;19.26;48.97;100494.13;5177933;27;20068;-70
2021/06/02 07:39:43;;;;;;;14.32;7.63;;;;;;;19.40;49.05;100494.03;5176327;27;20099;-67
2021/06/02 07:42:09;;;;;;;12.95;6.75;;;;;;;19.54;48.58;100495.53;5177661;27;20416;-66
2021/06/02 07:44:34;;;;;;;12.35;6.95;;;;;;;19.65;48.47;100493.97;5177494;27;20164;-69
2021/06/02 07:47:00;;;;;;;11.88;6.95;;;;;;;19.57;47.07;100495.13;5177741;27;20617;-69
2021/06/02 07:49:25;;;;;;;10.88;6.50;;;;;;;19.58;47.45;100506.75;5176111;27;25622;-71
2021/06/02 07:51:55;;;;;;;8.82;5.47;;;;;;;19.50;46.58;100502.44;5175295;27;42864;-67
2021/06/02 07:54:22;;;;;;;11.40;6.35;;;;;;;19.46;46.59;100498.53;5177637;27;20494;-68
2021/06/02 07:56:47;;;;;;;9.43;5.68;;;;;;;19.43;46.04;100509.78;5176771;27;41442;-69
2021/06/02 07:59:12;;;;;;;11.25;5.53;;;;;;;19.41;46.34;100512.72;5177560;27;24459;-68
2021/06/02 08:01:38;;;;;;;9.68;5.88;;;;;;;19.41;46.07;100507.31;5176128;27;20027;-67
2021/06/02 08:04:03;;;;;;;12.07;6.15;;;;;;;19.51;46.37;100509.50;5177084;27;20030;-67
2021/06/02 08:06:29;;;;;;;9.18;5.32;;;;;;;19.48;44.84;100518.06;5176326;27;20386;-66
2021/06/02 08:08:54;;;;;;;11.70;4.88;;;;;;;19.47;45.28;100516.41;5158493;27;20029;-70
2021/06/02 08:11:20;;;;;;;8.20;5.90;;;;;;;19.53;44.51;100523.63;5174727;27;41388;-69
2021/06/02 08:13:45;;;;;;;12.05;5.93;;;;;;;19.57;45.22;100514.03;5177812;27;20033;-63
2021/06/02 08:16:10;;;;;;;10.20;5.40;;;;;;;19.72;44.87;100512.84;5176866;27;39241;-71
2021/06/02 08:18:36;;;;;;;11.57;5.50;;;;;;;19.77;44.95;100521.94;5177105;27;26864;-65
2021/06/02 08:21:01;;;;;;;11.20;5.40;;;;;;;19.81;44.29;100522.34;5176598;27;39546;-70
2021/06/02 08:23:26;;;;;;;9.35;5.40;;;;;;;19.84;44.59;100515.69;5176424;27;41078;-68
2021/06/02 08:25:52;;;;;;;7.95;5.60;;;;;;;20.01;44.44;100519.44;5177661;27;20030;-74
2021/06/02 08:28:20;;;;;;;9.88;5.78;;;;;;;20.08;44.31;100522.91;5176969;27;20106;-70
2021/06/02 08:30:45;;;;;;;9.50;5.70;;;;;;;20.34;44.07;100530.91;5159127;27;20071;-72
2021/06/02 08:33:10;;;;;;;6.85;4.38;;;;;;;20.35;42.87;100516.34;5176976;27;27914;-76
2021/06/02 08:35:36;;;;;;;8.93;4.97;;;;;;;20.61;43.37;100513.31;5176833;27;20026;-74
2021/06/02 08:38:02;;;;;;;9.43;4.72;;;;;;;20.74;42.32;100525.84;5176517;27;29023;-68
2021/06/02 08:40:27;;;;;;;10.57;4.90;;;;;;;21.00;42.72;100517.59;5175481;27;20027;-69
2021/06/02 08:42:52;;;;;;;8.50;4.80;;;;;;;21.37;43.01;100512.00;5176302;27;38126;-67
2021/06/02 08:45:18;;;;;;;7.15;4.55;;;;;;;21.89;42.84;100514.03;5177574;27;20023;-71
2021/06/02 08:47:44;;;;;;;7.18;4.63;;;;;;;22.36;41.13;100515.84;5177506;27;20023;-70
2021/06/02 08:50:11;;;;;;;8.27;4.50;;;;;;;22.46;40.55;100510.63;5176066;27;20050;-72
2021/06/02 08:52:37;;;;;;;6.38;3.70;;;;;;;22.64;38.61;100521.28;5177006;27;20038;-67
2021/06/02 08:55:07;;;;;;;8.32;4.68;;;;;;;22.78;40.35;100524.53;5176798;27;20098;-72
2021/06/02 08:57:33;;;;;;;6.57;4.38;;;;;;;23.07;39.50;100516.34;5176982;27;20541;-67
2021/06/02 08:59:58;;;;;;;13.35;4.43;;;;;;;23.01;38.14;100511.91;5176823;27;20060;-62
2021/06/02 09:02:24;;;;;;;14.07;4.38;;;;;;;23.10;37.99;100523.16;5175335;27;20111;-68
2021/06/02 09:04:49;;;;;;;5.30;2.50;;;;;;;22.77;35.11;100538.34;5176428;27;20467;-64
2021/06/02 09:07:15;;;;;;;4.32;2.75;;;;;;;22.33;33.86;100532.59;5176998;27;20375;-66
2021/06/02 09:09:40;;;;;;;10.32;2.60;;;;;;;22.06;33.16;100519.53;5175958;27;20022;-68
2021/06/02 09:12:08;;;;;;;4.97;3.03;;;;;;;22.29;33.95;100522.22;5158180;27;20031;-68
2021/06/02 09:14:38;;;;;;;4.50;2.67;;;;;;;22.50;31.76;100533.50;5175476;27;20051;-71
2021/06/02 09:17:06;;;;;;;9.48;2.95;;;;;;;22.54;33.83;100534.69;5175662;27;20027;-71
2021/06/02 09:19:35;;;;;;;3.65;2.20;;;;;;;22.62;31.36;100525.31;5176530;27;20027;-70
2021/06/02 09:22:01;;;;;;;6.13;2.38;;;;;;;22.46;31.36;100525.00;5175211;27;20037;-69
2021/06/02 09:24:48;;;;;;;10.70;4.78;;;;;;;22.54;31.52;100540.09;5182199;27;20030;-61
2021/06/02 09:27:14;;;;;;;7.00;2.55;;;;;;;22.67;31.24;100519.16;5182778;27;20023;-69
2021/06/02 09:29:49;;;;;;;5.05;2.75;;;;;;;22.85;31.46;100527.09;5178646;27;20027;-70
2021/06/02 09:32:21;;;;;;;6.40;2.70;;;;;;;23.05;31.21;100532.06;5180296;27;20762;-72
2021/06/02 09:34:47;;;;;;;8.77;2.88;;;;;;;23.57;31.84;100533.75;5180268;27;20053;-69
2021/06/02 09:37:13;;;;;;;5.88;2.10;;;;;;;24.17;31.82;100525.94;5179579;27;20501;-64
2021/06/02 09:39:44;;;;;;;4.32;2.20;;;;;;;24.43;30.57;100529.78;5180334;27;20035;-68
2021/06/02 09:42:20;;;;;;;4.00;2.00;;;;;;;24.63;30.68;100534.66;5180560;27;20033;-71
2021/06/02 09:45:09;;;;;;;3.05;1.95;;;;;;;24.38;28.98;100547.94;5179744;27;20026;-72
2021/06/02 09:47:46;;;;;;;5.25;2.15;;;;;;;24.22;28.79;100545.03;5179173;27;20023;-69
2021/06/02 09:50:13;;;;;;;8.10;2.40;;;;;;;24.37;28.81;100535.41;5179393;27;20027;-69
2021/06/02 09:52:41;;;;;;;3.38;2.22;;;;;;;24.19;27.29;100534.66;5179742;27;20825;-69
2021/06/02 09:55:10;;;;;;;7.57;2.20;;;;;;;24.07;28.22;100536.66;5178106;27;20741;-68
2021/06/02 09:57:36;;;;;;;4.53;1.97;;;;;;;24.08;26.93;100546.47;5179522;27;20071;-69
2021/06/02 10:00:03;;;;;;;4.88;2.20;;;;;;;23.89;27.65;100535.88;5178911;27;34512;-67
2021/06/02 10:02:29;;;;;;;4.05;1.90;;;;;;;23.92;27.68;100537.28;5179272;27;20777;-67
2021/06/02 10:05:08;;;;;;;5.80;2.75;;;;;;;24.06;27.59;100537.72;5178936;27;32691;-71
2021/06/02 10:07:41;;;;;;;3.58;2.05;;;;;;;24.04;27.71;100535.25;5179382;27;20031;-71
2021/06/02 10:10:08;;;;;;;8.82;2.85;;;;;;;24.18;27.47;100541.19;5177960;27;20026;-69
2021/06/02 10:12:33;;;;;;;4.40;2.28;;;;;;;24.29;27.63;100528.50;5179402;27;20388;-69
2021/06/02 10:14:59;;;;;;;7.32;3.33;;;;;;;24.62;27.72;100533.00;5179379;27;20034;-71
2021/06/02 10:17:25;;;;;;;5.95;2.53;;;;;;;24.89;27.23;100548.56;5177969;27;20050;-70
2021/06/02 10:19:51;;;;;;;5.13;2.42;;;;;;;24.71;26.04;100536.09;5179971;27;20463;-70
2021/06/02 10:22:29;;;;;;;6.95;2.42;;;;;;;25.05;26.45;100540.53;5179437;27;20460;-71
2021/06/02 10:24:59;;;;;;;3.30;2.13;;;;;;;25.39;26.10;100534.84;5179278;27;20034;-70
2021/06/02 10:27:25;;;;;;;3.20;2.20;;;;;;;25.74;26.38;100536.16;5179185;27;20777;-67
2021/06/02 10:29:50;;;;;;;4.10;2.17;;;;;;;25.70;25.57;100540.50;5179112;27;20057;-68
2021/06/02 10:32:16;;;;;;;5.45;2.70;;;;;;;25.78;25.07;100532.66;5179732;27;20031;-69
2021/06/02 10:34:42;;;;;;;4.88;2.42;;;;;;;25.62;25.05;100529.00;5177857;27;20065;-71
2021/06/02 10:37:10;;;;;;;3.67;2.40;;;;;;;25.84;25.72;100533.50;5177184;27;20049;-69
2021/06/02 10:39:35;;;;;;;4.28;1.88;;;;;;;25.70;25.05;100537.78;5178590;27;20019;-68
2021/06/02 10:42:05;;;;;;;6.85;2.55;;;;;;;25.37;24.76;100537.84;5159527;27;40165;-69
2021/06/02 10:44:37;;;;;;;6.60;2.63;;;;;;;24.68;24.04;100544.78;5161077;27;20034;-69
2021/06/02 10:47:03;;;;;;;5.95;2.40;;;;;;;24.08;24.37;100551.94;5177962;27;20031;-68
2021/06/02 10:49:36;;;;;;;5.63;2.97;;;;;;;23.83;25.38;100534.16;5177514;27;21173;-68
2021/06/02 10:52:03;;;;;;;3.05;2.20;;;;;;;24.17;26.40;100539.53;5178031;27;20035;-67
2021/06/02 10:54:37;;;;;;;5.40;2.28;;;;;;;24.37;25.40;100527.25;5178989;27;20042;-66
2021/06/02 10:57:07;;;;;;;3.95;2.20;;;;;;;24.21;25.42;100539.84;5178912;27;20027;-65
2021/06/02 10:59:36;;;;;;;6.30;2.97;;;;;;;24.10;25.62;100528.03;5178664;27;20027;-67
2021/06/02 11:02:08;;;;;;;4.43;2.72;;;;;;;24.23;25.54;100533.06;5178892;27;20493;-68
2021/06/02 11:05:00;;;;;;;3.65;2.42;;;;;;;24.29;25.37;100528.50;5178534;27;20019;-67
2021/06/02 11:07:27;;;;;;;5.57;2.75;;;;;;;24.57;26.03;100530.19;5176075;27;20047;-69
2021/06/02 11:10:04;;;;;;;4.43;2.17;;;;;;;24.78;26.31;100530.44;5176629;27;20065;-70
2021/06/02 11:13:02;;;;;;;4.75;2.60;;;;;;;25.27;26.33;100543.97;5178320;27;20107;-63
2021/06/02 11:15:30;;;;;;;7.57;2.25;;;;;;;24.81;24.61;100547.09;5178030;27;20019;-69
2021/06/02 11:18:10;;;;;;;4.28;2.10;;;;;;;24.52;24.92;100537.50;5178600;27;20540;-66
2021/06/02 11:20:42;;;;;;;3.75;2.05;;;;;;;24.54;25.24;100529.91;5178408;27;20128;-66
2021/06/02 11:23:12;;;;;;;7.15;2.03;;;;;;;24.83;25.90;100527.78;5178490;27;20023;-66
2021/06/02 11:25:39;;;;;;;4.00;2.20;;;;;;;25.37;26.36;100531.53;5178298;27;20027;-64
2021/06/02 11:28:04;;;;;;;4.03;1.90;;;;;;;25.48;25.36;100528.66;5178417;27;20148;-68
2021/06/02 11:30:30;;;;;;;5.25;2.40;;;;;;;25.46;24.58;100524.53;5159880;27;20070;-68
2021/06/02 11:32:57;;;;;;;4.72;2.03;;;;;;;25.16;24.34;100532.19;5177171;27;20023;-65
2021/06/02 11:35:58;;;;;;;3.25;2.00;;;;;;;24.74;24.36;100529.31;5178030;27;20458;-68
2021/06/02 11:38:23;;;;;;;4.45;2.47;;;;;;;24.53;24.79;100520.88;5178656;27;20765;-69
2021/06/02 11:40:49;;;;;;;4.82;2.00;;;;;;;24.86;26.20;100531.91;5177576;27;20023;-65
2021/06/02 11:43:14;;;;;;;3.13;1.90;;;;;;;25.37;25.66;100526.09;5176826;27;20031;-70
2021/06/02 11:45:43;;;;;;;4.25;1.90;;;;;;;25.39;24.88;100526.66;5177197;27;20019;-65
2021/06/02 11:48:11;;;;;;;3.53;2.13;;;;;;;25.48;25.07;100523.19;5178252;27;20073;-68
2021/06/02 11:50:36;;;;;;;2.75;1.80;;;;;;;25.22;24.41;100513.13;5176054;27;20829;-67
2021/06/02 11:53:02;;;;;;;4.80;2.10;;;;;;;25.11;24.94;100532.13;5177474;27;20042;-67
2021/06/02 11:55:28;;;;;;;3.88;2.13;;;;;;;25.30;25.14;100537.19;5177424;27;20022;-64
2021/06/02 11:57:54;;;;;;;4.68;1.98;;;;;;;25.59;25.60;100532.25;5177683;27;20018;-64
2021/06/02 12:00:28;;;;;;;2.67;1.60;;;;;;;25.93;25.07;100529.19;5177868;27;20504;-68
2021/06/02 12:02:57;;;;;;;4.63;2.20;;;;;;;25.82;24.46;100522.03;5177586;27;20038;-69
2021/06/02 12:05:23;;;;;;;7.00;2.00;;;;;;;25.57;24.00;100523.50;5177853;27;20788;-66
2021/06/02 12:07:56;;;;;;;2.53;1.95;;;;;;;25.37;24.44;100523.38;5176687;27;20042;-69
2021/06/02 12:10:31;;;;;;;6.25;2.70;;;;;;;25.27;24.49;100521.34;5176360;27;20042;-65
2021/06/02 12:12:57;;;;;;;3.53;2.20;;;;;;;25.18;24.08;100530.00;5176742;27;20091;-68
2021/06/02 12:15:23;;;;;;;5.63;2.05;;;;;;;24.81;24.13;100536.22;5176434;27;20031;-69
2021/06/02 12:17:49;;;;;;;4.95;2.40;;;;;;;25.00;25.50;100528.50;5177576;27;20110;-68
2021/06/02 12:20:24;;;;;;;3.25;2.00;;;;;;;25.68;25.84;100530.69;5177527;27;20019;-69
2021/06/02 12:22:50;;;;;;;3.70;1.88;;;;;;;25.98;25.00;100529.19;5176250;27;20030;-69
2021/06/02 12:25:17;;;;;;;5.03;2.17;;;;;;;26.15;25.20;100526.31;5177417;27;20022;-70
2021/06/02 12:27:47;;;;;;;2.95;2.15;;;;;;;26.32;24.79;100531.56;5177358;27;20399;-71
2021/06/02 12:30:15;;;;;;;3.50;2.25;;;;;;;25.87;23.21;100537.63;5177107;27;20027;-70
2021/06/02 12:32:49;;;;;;;6.15;2.17;;;;;;;25.25;23.70;100532.53;5177034;27;20022;-69
2021/06/02 12:35:33;;;;;;;4.85;2.03;;;;;;;25.08;24.35;100526.38;5177863;27;20483;-69
2021/06/02 12:38:05;;;;;;;4.82;2.03;;;;;;;25.19;24.94;100525.38;5177749;27;20035;-64
2021/06/02 12:40:32;;;;;;;3.55;2.15;;;;;;;25.27;24.82;100530.34;5177421;27;20027;-66
2021/06/02 12:42:57;;;;;;;3.53;2.47;;;;;;;25.36;25.12;100536.19;5177452;27;20885;-67
2021/06/02 12:45:24;;;;;;;7.78;2.40;;;;;;;25.34;24.32;100528.28;5174949;27;25796;-64
2021/06/02 12:47:49;;;;;;;4.45;2.20;;;;;;;25.44;24.46;100527.53;5177118;27;20113;-65
2021/06/02 12:50:46;;;;;;;4.97;2.25;;;;;;;25.22;24.22;100533.06;5177475;27;20106;-68
2021/06/02 12:53:13;;;;;;;4.47;2.20;;;;;;;25.02;24.22;100530.16;5177036;27;20034;-67
2021/06/02 12:55:40;;;;;;;4.55;2.10;;;;;;;24.96;24.95;100527.38;5175097;27;20050;-68
2021/06/02 12:58:10;;;;;;;3.70;2.10;;;;;;;25.00;24.96;100530.38;5176608;27;20022;-68
2021/06/02 13:00:38;;;;;;;3.35;2.08;;;;;;;24.86;24.73;100531.91;5179391;27;20026;-65
2021/06/02 13:03:03;;;;;;;5.40;1.80;;;;;;;24.68;24.76;100531.16;5179316;27;20572;-65
2021/06/02 13:05:28;;;;;;;5.05;2.15;;;;;;;24.74;24.80;100524.69;5176952;27;20099;-62
2021/06/02 13:08:03;;;;;;;5.88;2.30;;;;;;;24.75;24.68;100522.78;5155974;27;30033;-67
2021/06/02 13:10:32;;;;;;;7.47;2.67;;;;;;;24.72;24.68;100526.84;5158314;27;20100;-65
2021/06/02 13:12:58;;;;;;;3.38;2.00;;;;;;;24.51;24.70;100528.50;5157690;27;20030;-60
2021/06/02 13:15:28;;;;;;;8.13;2.97;;;;;;;24.19;24.56;100531.91;5157742;27;20019;-67
2021/06/02 13:17:54;;;;;;;;;;;;;;;23.93;24.55;100531.56;5157925;27;20171;-66
2021/06/02 13:20:35;;;;;;;6.28;2.30;;;;;;;23.68;25.00;100528.50;5158046;27;20412;-67
2021/06/02 13:23:17;;;;;;;6.13;2.17;;;;;;;23.46;25.11;100534.69;5156707;27;20167;-66
2021/06/02 13:25:44;;;;;;;12.38;2.45;;;;;;;23.42;25.64;100525.38;5158149;27;20024;-61
2021/06/02 13:28:10;;;;;;;7.85;2.30;;;;;;;23.71;26.12;100527.97;5158272;27;20487;-60
2021/06/02 13:30:39;;;;;;;4.32;2.53;;;;;;;24.07;26.51;100529.34;5157562;27;20038;-60
2021/06/02 13:33:04;;;;;;;6.88;2.45;;;;;;;24.48;26.73;100523.56;5156938;27;20034;-60
2021/06/02 13:35:29;;;;;;;4.28;2.38;;;;;;;24.60;26.20;100524.22;5156470;27;20421;-62
2021/06/02 13:37:55;;;;;;;4.80;2.67;;;;;;;24.69;26.25;100534.69;5158027;27;20527;-63
2021/06/02 13:40:22;;;;;;;4.57;2.50;;;;;;;24.57;25.52;100532.91;5157065;27;37650;-60
2021/06/02 13:43:09;;;;;;;3.45;2.10;;;;;;;24.40;25.88;100524.84;5157361;27;20548;-62
2021/06/02 13:45:38;;;;;;;4.00;2.42;;;;;;;24.25;26.01;100535.53;5156633;27;20056;-62
2021/06/02 13:48:28;;;;;;;3.38;2.22;;;;;;;24.13;25.91;100535.66;5157865;27;20758;-66
2021/06/02 13:51:29;;;;;;;5.13;2.30;;;;;;;24.20;26.11;100525.41;5156036;27;20030;-63
2021/06/02 13:54:11;;;;;;;6.63;2.33;;;;;;;24.22;26.19;100534.16;5151144;27;20047;-66
2021/06/02 13:56:49;;;;;;;2.80;1.90;;;;;;;24.26;26.15;100534.47;5157538;27;20030;-65
2021/06/02 13:59:19;;;;;;;5.40;2.38;;;;;;;24.21;26.26;100528.94;5157600;27;20035;-64
2021/06/02 14:01:48;;;;;;;6.20;2.42;;;;;;;24.29;26.45;100540.22;5157681;27;20487;-66
2021/06/02 14:04:16;;;;;;;3.83;2.20;;;;;;;24.51;26.67;100531.22;5157762;27;20035;-61
2021/06/02 14:06:42;;;;;;;6.13;2.08;;;;;;;24.76;26.84;100532.63;5138580;27;20600;-65
2021/06/02 14:09:08;;;;;;;4.88;2.60;;;;;;;24.86;26.53;100538.16;5156636;27;26760;-65
2021/06/02 14:11:33;;;;;;;3.30;2.50;;;;;;;24.86;26.08;100521.81;5157402;27;20023;-64
2021/06/02 14:13:59;;;;;;;5.32;2.10;;;;;;;24.64;26.23;100533.56;5157353;27;20112;-64
2021/06/02 14:16:24;;;;;;;10.52;2.78;;;;;;;24.37;26.11;100529.97;5167209;27;40002;-66
2021/06/02 14:18:51;;;;;;;7.40;2.47;;;;;;;24.00;25.86;100534.13;5143738;27;20019;-66
2021/06/02 14:21:16;;;;;;;3.45;2.20;;;;;;;23.71;26.54;100526.06;5156955;27;20027;-67
2021/06/02 14:23:42;;;;;;;4.32;2.15;;;;;;;23.55;26.55;100526.91;5155687;27;20027;-67
2021/06/02 14:26:07;;;;;;;4.22;2.13;;;;;;;23.51;26.85;100532.06;5156325;27;20116;-67
2021/06/02 14:28:33;;;;;;;4.30;2.28;;;;;;;23.43;27.19;100533.28;5162326;27;27155;-66
2021/06/02 14:30:58;;;;;;;5.05;2.22;;;;;;;23.40;27.36;100530.22;5131915;27;20036;-66
